^^
Your Local Weather - Clay, NY Station Historical Data
Daily Summary for June 22, 2017 Units:  English    Metric   Both
« Previous Day
Next Day »
Daily Weekly Monthly Yearly Custom
  High: Low: Average:
Temperature: 76.0 °F 52.0 °F 65.9 °F
Dew Point: 63.0 °F 49.9 °F 55.8 °F
Humidity: 94% 47% 72%
Wind Speed: 4.0mph 0.0mph 0.7mph
Wind Gust: 7.0mph - -
Wind- - South
Pressure: 29.97 in 29.77 in -
Precipitation: 0.00 in    
Historical Graphs
 
 
Tabular Data for June 22, 2017
Time Temperature Dew Point Pressure Wind Wind Speed Wind Gust Humidity Rainfall Rate (Hourly) solar
00:04 55.9 °F 52.4 °F 29.92 in Calm     88% 0.00 in 0 W/m2
00:10 55.8 °F 52.3 °F 29.92 in Calm     88% 0.00 in 0 W/m2
00:16 55.7 °F 52.2 °F 29.92 in Calm     88% 0.00 in 0 W/m2
00:22 55.5 °F 52.0 °F 29.93 in Calm     88% 0.00 in 0 W/m2
00:28 55.2 °F 51.7 °F 29.93 in Calm     88% 0.00 in 0 W/m2
00:34 55.1 °F 51.6 °F 29.93 in Calm     88% 0.00 in 0 W/m2
00:40 55.0 °F 51.5 °F 29.93 in Calm     88% 0.00 in 0 W/m2
00:46 54.9 °F 51.4 °F 29.93 in Calm     88% 0.00 in 0 W/m2
00:52 54.7 °F 51.5 °F 29.93 in Calm     89% 0.00 in 0 W/m2
00:58 54.6 °F 51.4 °F 29.93 in Calm     89% 0.00 in 0 W/m2
01:04 54.5 °F 51.3 °F 29.93 in Calm     89% 0.00 in 0 W/m2
01:10 54.4 °F 51.2 °F 29.93 in Calm     89% 0.00 in 0 W/m2
01:16 54.2 °F 51.0 °F 29.93 in Calm     89% 0.00 in 0 W/m2
01:22 54.2 °F 51.3 °F 29.93 in Calm     90% 0.00 in 0 W/m2
01:28 54.2 °F 51.3 °F 29.93 in Calm     90% 0.00 in 0 W/m2
01:34 54.2 °F 51.3 °F 29.93 in Calm     90% 0.00 in 0 W/m2
01:40 54.0 °F 51.1 °F 29.93 in Calm     90% 0.00 in 0 W/m2
01:46 53.9 °F 51.0 °F 29.93 in Calm     90% 0.00 in 0 W/m2
01:52 53.8 °F 50.9 °F 29.93 in Calm     90% 0.00 in 0 W/m2
01:58 53.6 °F 50.7 °F 29.93 in Calm     90% 0.00 in 0 W/m2
02:04 53.4 °F 50.5 °F 29.93 in Calm     90% 0.00 in 0 W/m2
02:10 53.2 °F 50.3 °F 29.93 in Calm     90% 0.00 in 0 W/m2
02:16 53.2 °F 50.3 °F 29.93 in Calm     90% 0.00 in 0 W/m2
02:22 53.2 °F 50.6 °F 29.93 in Calm     91% 0.00 in 0 W/m2
02:28 53.4 °F 50.8 °F 29.93 in Calm     91% 0.00 in 0 W/m2
02:34 53.4 °F 50.8 °F 29.93 in Calm     91% 0.00 in 0 W/m2
02:40 53.3 °F 50.7 °F 29.93 in Calm     91% 0.00 in 0 W/m2
02:46 53.1 °F 50.5 °F 29.93 in Calm     91% 0.00 in 0 W/m2
02:52 53.0 °F 50.4 °F 29.93 in Calm     91% 0.00 in 0 W/m2
02:58 52.8 °F 50.2 °F 29.93 in Calm     91% 0.00 in 0 W/m2
03:04 52.7 °F 50.1 °F 29.93 in Calm     91% 0.00 in 0 W/m2
03:10 52.8 °F 50.2 °F 29.93 in Calm     91% 0.00 in 0 W/m2
03:16 52.9 °F 50.6 °F 29.93 in Calm     92% 0.00 in 0 W/m2
03:22 52.8 °F 50.5 °F 29.93 in Calm     92% 0.00 in 0 W/m2
03:28 52.8 °F 50.5 °F 29.94 in Calm     92% 0.00 in 0 W/m2
03:34 52.6 °F 50.3 °F 29.94 in Calm     92% 0.00 in 0 W/m2
03:40 52.6 °F 50.3 °F 29.94 in Calm     92% 0.00 in 0 W/m2
03:46 52.7 °F 50.4 °F 29.94 in Calm     92% 0.00 in 0 W/m2
03:52 52.7 °F 50.4 °F 29.94 in Calm     92% 0.00 in 0 W/m2
03:58 52.6 °F 50.3 °F 29.94 in Calm     92% 0.00 in 0 W/m2
04:04 52.5 °F 50.2 °F 29.95 in Calm     92% 0.00 in 0 W/m2
04:10 52.5 °F 50.2 °F 29.95 in Calm     92% 0.00 in 0 W/m2
04:16 52.4 °F 50.1 °F 29.95 in Calm     92% 0.00 in 0 W/m2
04:22 52.2 °F 49.9 °F 29.95 in Calm     92% 0.00 in 0 W/m2
04:28 52.2 °F 49.9 °F 29.95 in Calm     92% 0.00 in 0 W/m2
04:34 52.2 °F 49.9 °F 29.95 in Calm     92% 0.00 in 0 W/m2
04:40 52.2 °F 49.9 °F 29.95 in Calm     92% 0.00 in 0 W/m2
04:46 52.2 °F 49.9 °F 29.95 in Calm     92% 0.00 in 0 W/m2
04:52 52.3 °F 50.3 °F 29.95 in Calm     93% 0.00 in 0 W/m2
04:58 52.2 °F 49.9 °F 29.95 in Calm     92% 0.00 in 0 W/m2
05:04 52.3 °F 50.3 °F 29.95 in Calm     93% 0.00 in 0 W/m2
05:10 52.2 °F 50.2 °F 29.95 in Calm     93% 0.00 in 0 W/m2
05:16 52.1 °F 50.1 °F 29.95 in Calm     93% 0.00 in 0 W/m2
05:22 52.3 °F 50.3 °F 29.95 in Calm     93% 0.00 in 0 W/m2
05:28 52.3 °F 50.3 °F 29.95 in Calm     93% 0.00 in 0 W/m2
05:34 52.1 °F 50.1 °F 29.95 in Calm     93% 0.00 in 5 W/m2
05:40 52.0 °F 50.0 °F 29.95 in Calm     93% 0.00 in 7 W/m2
05:46 52.0 °F 50.0 °F 29.95 in Calm     93% 0.00 in 11 W/m2
05:52 52.1 °F 50.1 °F 29.95 in Calm     93% 0.00 in 12 W/m2
05:58 52.0 °F 50.0 °F 29.95 in Calm     93% 0.00 in 16 W/m2
06:04 52.2 °F 50.2 °F 29.95 in Calm     93% 0.00 in 18 W/m2
06:16 52.4 °F 50.4 °F 29.96 in Calm     93% 0.00 in 25 W/m2
06:22 52.5 °F 50.5 °F 29.96 in Calm     93% 0.00 in 42 W/m2
06:28 53.2 °F 51.2 °F 29.95 in Calm     93% 0.00 in 134 W/m2
06:34 54.1 °F 52.4 °F 29.96 in Calm     94% 0.00 in 146 W/m2
06:40 55.1 °F 53.4 °F 29.96 in Calm     94% 0.00 in 162 W/m2
06:46 55.9 °F 54.2 °F 29.96 in Calm     94% 0.00 in 171 W/m2
06:52 56.7 °F 55.0 °F 29.97 in Calm     94% 0.00 in 186 W/m2
06:58 57.1 °F 55.4 °F 29.97 in Calm     94% 0.00 in 202 W/m2
07:04 57.7 °F 55.7 °F 29.97 in Calm     93% 0.00 in 214 W/m2
07:10 58.3 °F 56.3 °F 29.96 in Calm     93% 0.00 in 230 W/m2
07:16 59.0 °F 56.7 °F 29.96 in Calm     92% 0.00 in 246 W/m2
07:22 60.0 °F 57.4 °F 29.96 in Calm   1.0 mph 91% 0.00 in 264 W/m2
07:28 60.8 °F 57.5 °F 29.95 in Calm   1.0 mph 89% 0.00 in 281 W/m2
07:34 61.5 °F 57.3 °F 29.95 in Calm     86% 0.00 in 299 W/m2
07:40 62.3 °F 57.1 °F 29.96 in Calm     83% 0.00 in 332 W/m2
07:46 62.7 °F 56.8 °F 29.96 in Calm     81% 0.00 in 355 W/m2
07:52 63.4 °F 57.1 °F 29.96 in Calm     80% 0.00 in 381 W/m2
07:58 64.1 °F 57.1 °F 29.96 in Calm     78% 0.00 in 392 W/m2
08:06 65.3 °F 57.2 °F 29.96 in Calm     75% 0.00 in 408 W/m2
08:12 65.7 °F 57.6 °F 29.96 in Calm   1.0 mph 75% 0.00 in 403 W/m2
08:18 66.1 °F 58.3 °F 29.96 in Calm   1.0 mph 76% 0.00 in 429 W/m2
08:24 66.6 °F 58.1 °F 29.95 in Calm     74% 0.00 in 441 W/m2
08:30 66.6 °F 57.3 °F 29.95 in Calm     72% 0.00 in 506 W/m2
08:36 66.8 °F 57.5 °F 29.95 in Calm     72% 0.00 in 485 W/m2
08:42 67.2 °F 58.2 °F 29.95 in SSW 1.0 mph 1.0 mph 73% 0.00 in 462 W/m2
08:48 67.8 °F 57.7 °F 29.95 in SSE 1.0 mph 3.0 mph 70% 0.00 in 529 W/m2
08:54 67.8 °F 56.9 °F 29.96 in SSE 1.0 mph 1.0 mph 68% 0.00 in 540 W/m2
09:00 68.1 °F 57.1 °F 29.96 in Calm     68% 0.00 in 555 W/m2
09:06 68.7 °F 56.9 °F 29.96 in Calm   5.0 mph 66% 0.00 in 571 W/m2
09:12 68.6 °F 57.2 °F 29.95 in SSW 2.0 mph 2.0 mph 67% 0.00 in 591 W/m2
09:18 69.1 °F 57.3 °F 29.95 in West 1.0 mph 4.0 mph 66% 0.00 in 606 W/m2
09:24 69.4 °F 57.5 °F 29.95 in South 1.0 mph 5.0 mph 66% 0.00 in 619 W/m2
09:30 70.0 °F 57.7 °F 29.95 in West 1.0 mph 1.0 mph 65% 0.00 in 635 W/m2
09:36 70.3 °F 58.0 °F 29.95 in WSW 1.0 mph 5.0 mph 65% 0.00 in 657 W/m2
09:42 70.5 °F 57.3 °F 29.95 in SW 1.0 mph 3.0 mph 63% 0.00 in 673 W/m2
09:48 70.6 °F 57.4 °F 29.95 in SSE 2.0 mph 6.0 mph 63% 0.00 in 691 W/m2
09:54 70.5 °F 57.3 °F 29.95 in South 3.0 mph 4.0 mph 63% 0.00 in 700 W/m2
10:00 70.8 °F 55.8 °F 29.95 in SW 3.0 mph 4.0 mph 59% 0.00 in 717 W/m2
10:06 71.0 °F 55.9 °F 29.95 in WSW 3.0 mph 6.0 mph 59% 0.00 in 735 W/m2
10:12 71.1 °F 57.0 °F 29.94 in SW 4.0 mph 4.0 mph 61% 0.00 in 754 W/m2
10:18 71.9 °F 58.2 °F 29.95 in SSW 3.0 mph 4.0 mph 62% 0.00 in 705 W/m2
10:24 72.3 °F 57.2 °F 29.95 in WSW 2.0 mph 5.0 mph 59% 0.00 in 793 W/m2
10:30 72.3 °F 59.4 °F 29.95 in NW 2.0 mph 2.0 mph 64% 0.00 in 793 W/m2
10:36 72.6 °F 57.9 °F 29.94 in SW 1.0 mph 4.0 mph 60% 0.00 in 803 W/m2
10:42 72.9 °F 60.0 °F 29.94 in WSW 1.0 mph 1.0 mph 64% 0.00 in 863 W/m2
10:48 72.2 °F 58.5 °F 29.94 in WSW 1.0 mph 3.0 mph 62% 0.00 in 185 W/m2
10:54 72.6 °F 60.2 °F 29.94 in West 1.0 mph 5.0 mph 65% 0.00 in 969 W/m2
11:00 73.2 °F 56.1 °F 29.93 in South 1.0 mph 6.0 mph 55% 0.00 in 322 W/m2
11:06 72.6 °F 58.4 °F 29.92 in SW 2.0 mph 7.0 mph 61% 0.00 in 353 W/m2
11:12 73.0 °F 56.9 °F 29.93 in SSW 2.0 mph 2.0 mph 57% 0.00 in 875 W/m2
11:18 73.7 °F 58.0 °F 29.93 in South 1.0 mph 2.0 mph 58% 0.00 in 1011 W/m2
11:24 74.1 °F 57.9 °F 29.93 in West 1.0 mph 6.0 mph 57% 0.00 in 517 W/m2
11:30 74.2 °F 58.5 °F 29.92 in WSW 2.0 mph 5.0 mph 58% 0.00 in 742 W/m2
11:36 73.7 °F 56.5 °F 29.92 in SW 2.0 mph 5.0 mph 55% 0.00 in 422 W/m2
11:42 73.4 °F 56.2 °F 29.92 in South 2.0 mph 5.0 mph 55% 0.00 in 770 W/m2
11:48 74.0 °F 57.3 °F 29.92 in South 2.0 mph 5.0 mph 56% 0.00 in 573 W/m2
11:54 74.4 °F 54.5 °F 29.91 in West 1.0 mph 2.0 mph 50% 0.00 in 591 W/m2
12:00 74.4 °F 55.6 °F 29.92 in WSW 1.0 mph 1.0 mph 52% 0.00 in 501 W/m2
12:06 75.1 °F 58.3 °F 29.92 in West 1.0 mph 3.0 mph 56% 0.00 in 872 W/m2
12:12 74.4 °F 57.2 °F 29.92 in WSW 2.0 mph 5.0 mph 55% 0.00 in 596 W/m2
12:18 74.3 °F 55.5 °F 29.92 in West 2.0 mph 5.0 mph 52% 0.00 in 777 W/m2
12:24 74.6 °F 53.6 °F 29.92 in SSW 2.0 mph 5.0 mph 48% 0.00 in 766 W/m2
12:30 74.7 °F 53.7 °F 29.92 in SW 3.0 mph 3.0 mph 48% 0.00 in 768 W/m2
12:36 74.9 °F 55.0 °F 29.92 in SSW 3.0 mph 3.0 mph 50% 0.00 in 603 W/m2
12:42 74.6 °F 53.6 °F 29.91 in WSW 4.0 mph 4.0 mph 48% 0.00 in 737 W/m2
12:48 74.9 °F 55.0 °F 29.91 in SW 3.0 mph 5.0 mph 50% 0.00 in 1007 W/m2
12:54 76.0 °F 54.9 °F 29.91 in WSW 2.0 mph 4.0 mph 48% 0.00 in 610 W/m2
13:00 75.5 °F 55.0 °F 29.91 in South 3.0 mph 3.0 mph 49% 0.00 in 930 W/m2
13:06 76.0 °F 55.5 °F 29.90 in NW 3.0 mph 5.0 mph 49% 0.00 in 691 W/m2
13:12 75.7 °F 55.2 °F 29.90 in WSW 1.0 mph 3.0 mph 49% 0.00 in 403 W/m2
13:18 74.8 °F 53.2 °F 29.92 in SW 2.0 mph 3.0 mph 47% 0.00 in 519 W/m2
13:24 75.6 °F 60.3 °F 29.92 in NW 2.0 mph 4.0 mph 59% 0.00 in 805 W/m2
13:30 75.8 °F 55.3 °F 29.90 in WNW 1.0 mph 2.0 mph 49% 0.00 in 431 W/m2
13:36 74.8 °F 56.5 °F 29.91 in SW 2.0 mph 5.0 mph 53% 0.00 in 501 W/m2
13:42 74.2 °F 54.9 °F 29.90 in SSW 3.0 mph 3.0 mph 51% 0.00 in 250 W/m2
13:48 73.8 °F 56.6 °F 29.90 in West 2.0 mph 3.0 mph 55% 0.00 in 183 W/m2
13:54 73.6 °F 54.4 °F 29.89 in WSW 1.0 mph 4.0 mph 51% 0.00 in 220 W/m2
14:00 73.4 °F 54.7 °F 29.89 in WSW 2.0 mph 3.0 mph 52% 0.00 in 311 W/m2
14:06 73.6 °F 55.9 °F 29.89 in SSW 2.0 mph 4.0 mph 54% 0.00 in 327 W/m2
14:12 73.6 °F 55.9 °F 29.89 in SW 2.0 mph 2.0 mph 54% 0.00 in 260 W/m2
14:18 73.6 °F 54.9 °F 29.87 in SW 1.0 mph 2.0 mph 52% 0.00 in 239 W/m2
14:24 73.3 °F 55.6 °F 29.87 in WSW 2.0 mph 3.0 mph 54% 0.00 in 283 W/m2
14:30 73.4 °F 56.2 °F 29.87 in SW 2.0 mph 2.0 mph 55% 0.00 in 221 W/m2
14:36 73.5 °F 55.8 °F 29.87 in WSW 1.0 mph 2.0 mph 54% 0.00 in 167 W/m2
14:42 73.2 °F 57.1 °F 29.87 in WSW 1.0 mph 1.0 mph 57% 0.00 in 162 W/m2
14:48 73.0 °F 55.9 °F 29.87 in WSW 1.0 mph 3.0 mph 55% 0.00 in 204 W/m2
14:54 73.1 °F 56.5 °F 29.86 in WSW 1.0 mph 3.0 mph 56% 0.00 in 188 W/m2
15:00 73.3 °F 55.1 °F 29.86 in WSW 1.0 mph 2.0 mph 53% 0.00 in 197 W/m2
15:06 73.4 °F 55.7 °F 29.86 in WSW 1.0 mph 2.0 mph 54% 0.00 in 192 W/m2
15:12 73.4 °F 56.2 °F 29.86 in WSW 1.0 mph 1.0 mph 55% 0.00 in 206 W/m2
15:18 73.4 °F 56.2 °F 29.86 in WSW 1.0 mph 2.0 mph 55% 0.00 in 148 W/m2
15:24 73.5 °F 56.8 °F 29.85 in WSW 1.0 mph 1.0 mph 56% 0.00 in 165 W/m2
15:30 73.4 °F 55.7 °F 29.85 in Calm   3.0 mph 54% 0.00 in 192 W/m2
15:36 73.6 °F 55.9 °F 29.85 in South 2.0 mph 3.0 mph 54% 0.00 in 265 W/m2
15:42 74.0 °F 55.3 °F 29.84 in South 2.0 mph 2.0 mph 52% 0.00 in 281 W/m2
15:48 74.2 °F 53.8 °F 29.85 in South 1.0 mph 2.0 mph 49% 0.00 in 272 W/m2
15:54 74.3 °F 54.5 °F 29.85 in Calm   1.0 mph 50% 0.00 in 274 W/m2
16:00 74.3 °F 58.1 °F 29.84 in Calm     57% 0.00 in 230 W/m2
16:06 74.2 °F 54.4 °F 29.84 in South 1.0 mph 2.0 mph 50% 0.00 in 199 W/m2
16:12 74.1 °F 57.9 °F 29.84 in South 1.0 mph 1.0 mph 57% 0.00 in 169 W/m2
16:18 73.8 °F 60.9 °F 29.84 in Calm   1.0 mph 64% 0.00 in 153 W/m2
16:24 73.3 °F 61.7 °F 29.84 in Calm     67% 0.00 in 202 W/m2
16:30 73.1 °F 61.5 °F 29.84 in Calm     67% 0.00 in 223 W/m2
16:36 73.6 °F 58.4 °F 29.84 in Calm   1.0 mph 59% 0.00 in 195 W/m2
16:42 74.2 °F 60.3 °F 29.83 in Calm     62% 0.00 in 269 W/m2
16:48 74.4 °F 59.6 °F 29.84 in Calm   1.0 mph 60% 0.00 in 241 W/m2
16:54 74.1 °F 59.8 °F 29.83 in East 1.0 mph 2.0 mph 61% 0.00 in 186 W/m2
17:00 74.0 °F 59.7 °F 29.82 in East 1.0 mph 1.0 mph 61% 0.00 in 262 W/m2
17:06 74.1 °F 61.6 °F 29.82 in Calm   3.0 mph 65% 0.00 in 178 W/m2
17:12 74.4 °F 61.4 °F 29.82 in Calm     64% 0.00 in 130 W/m2
17:18 74.2 °F 63.0 °F 29.82 in Calm     68% 0.00 in 130 W/m2
17:24 74.0 °F 60.2 °F 29.82 in East 1.0 mph 2.0 mph 62% 0.00 in 158 W/m2
17:30 73.6 °F 59.3 °F 29.81 in NE 1.0 mph 1.0 mph 61% 0.00 in 134 W/m2
17:36 73.3 °F 59.5 °F 29.81 in NE 1.0 mph 2.0 mph 62% 0.00 in 141 W/m2
17:42 73.0 °F 59.2 °F 29.81 in ENE 2.0 mph 4.0 mph 62% 0.00 in 134 W/m2
17:48 72.9 °F 60.0 °F 29.81 in ENE 2.0 mph 4.0 mph 64% 0.00 in 128 W/m2
17:54 72.9 °F 59.6 °F 29.81 in NE 1.0 mph 2.0 mph 63% 0.00 in 151 W/m2
18:00 72.9 °F 59.6 °F 29.82 in ENE 2.0 mph 2.0 mph 63% 0.00 in 174 W/m2
18:06 73.0 °F 59.7 °F 29.81 in ENE 1.0 mph 2.0 mph 63% 0.00 in 193 W/m2
18:12 73.2 °F 59.8 °F 29.81 in ENE 1.0 mph 1.0 mph 63% 0.00 in 169 W/m2
18:18 73.2 °F 58.0 °F 29.81 in SE 2.0 mph 4.0 mph 59% 0.00 in 102 W/m2
18:24 73.3 °F 59.0 °F 29.81 in East 3.0 mph 3.0 mph 61% 0.00 in 86 W/m2
18:30 73.3 °F 59.5 °F 29.81 in SSE 2.0 mph 2.0 mph 62% 0.00 in 123 W/m2
18:36 73.7 °F 59.9 °F 29.81 in SE 2.0 mph 2.0 mph 62% 0.00 in 84 W/m2
18:42 73.7 °F 58.9 °F 29.81 in NE 2.0 mph 7.0 mph 60% 0.00 in 49 W/m2
18:48 73.6 °F 59.3 °F 29.81 in East 2.0 mph 7.0 mph 61% 0.00 in 44 W/m2
18:54 73.5 °F 58.8 °F 29.80 in SSE 2.0 mph 2.0 mph 60% 0.00 in 37 W/m2
19:00 73.3 °F 58.1 °F 29.81 in East 1.0 mph 1.0 mph 59% 0.00 in 35 W/m2
19:06 73.1 °F 58.4 °F 29.81 in ENE 1.0 mph 1.0 mph 60% 0.00 in 35 W/m2
19:12 72.9 °F 58.7 °F 29.80 in Calm   1.0 mph 61% 0.00 in 33 W/m2
19:18 72.5 °F 58.3 °F 29.80 in Calm   1.0 mph 61% 0.00 in 32 W/m2
19:24 72.2 °F 58.5 °F 29.80 in Calm     62% 0.00 in 42 W/m2
19:30 72.1 °F 58.8 °F 29.80 in Calm     63% 0.00 in 56 W/m2
19:36 71.9 °F 59.1 °F 29.79 in Calm     64% 0.00 in 42 W/m2
19:42 71.8 °F 59.0 °F 29.79 in Calm     64% 0.00 in 35 W/m2
19:48 71.8 °F 60.2 °F 29.79 in Calm     67% 0.00 in 30 W/m2
19:54 71.6 °F 59.2 °F 29.79 in Calm     65% 0.00 in 42 W/m2
20:00 71.4 °F 58.1 °F 29.79 in Calm     63% 0.00 in 28 W/m2
20:06 71.6 °F 58.3 °F 29.79 in East 1.0 mph 2.0 mph 63% 0.00 in 14 W/m2
20:12 71.5 °F 59.1 °F 29.79 in East 1.0 mph 1.0 mph 65% 0.00 in 5 W/m2
20:18 71.3 °F 58.9 °F 29.79 in Calm   1.0 mph 65% 0.00 in 0 W/m2
20:24 71.1 °F 58.3 °F 29.79 in Calm     64% 0.00 in 0 W/m2
20:30 71.2 °F 58.0 °F 29.79 in Calm     63% 0.00 in 0 W/m2
20:36 71.0 °F 59.5 °F 29.79 in Calm     67% 0.00 in 0 W/m2
20:42 70.7 °F 59.2 °F 29.79 in Calm     67% 0.00 in 0 W/m2
20:48 70.4 °F 58.5 °F 29.79 in Calm     66% 0.00 in 0 W/m2
20:54 70.4 °F 58.5 °F 29.79 in Calm     66% 0.00 in 0 W/m2
21:00 70.3 °F 59.2 °F 29.79 in Calm     68% 0.00 in 0 W/m2
21:06 69.8 °F 59.6 °F 29.79 in Calm   1.0 mph 70% 0.00 in 0 W/m2
21:12 69.5 °F 58.5 °F 29.79 in SSE 1.0 mph 2.0 mph 68% 0.00 in 0 W/m2
21:18 69.9 °F 59.3 °F 29.78 in ENE 1.0 mph 3.0 mph 69% 0.00 in 0 W/m2
21:24 69.8 °F 58.8 °F 29.78 in ENE 2.0 mph 2.0 mph 68% 0.00 in 0 W/m2
21:30 69.8 °F 59.6 °F 29.78 in ENE 1.0 mph 1.0 mph 70% 0.00 in 0 W/m2
21:36 69.6 °F 59.0 °F 29.79 in Calm   1.0 mph 69% 0.00 in 0 W/m2
21:42 69.5 °F 58.9 °F 29.79 in Calm     69% 0.00 in 0 W/m2
21:48 69.2 °F 59.8 °F 29.79 in Calm     72% 0.00 in 0 W/m2
21:54 68.9 °F 59.5 °F 29.79 in Calm     72% 0.00 in 0 W/m2
22:00 68.4 °F 59.4 °F 29.79 in Calm     73% 0.00 in 0 W/m2
22:06 67.9 °F 59.3 °F 29.79 in Calm     74% 0.00 in 0 W/m2
22:12 67.4 °F 59.2 °F 29.79 in Calm     75% 0.00 in 0 W/m2
22:18 67.0 °F 59.5 °F 29.79 in Calm     77% 0.00 in 0 W/m2
22:24 66.8 °F 59.4 °F 29.79 in Calm     77% 0.00 in 0 W/m2
22:30 66.5 °F 59.8 °F 29.79 in Calm     79% 0.00 in 0 W/m2
22:36 66.3 °F 59.2 °F 29.79 in Calm     78% 0.00 in 0 W/m2
22:42 66.1 °F 59.4 °F 29.78 in Calm     79% 0.00 in 0 W/m2
22:48 65.8 °F 59.5 °F 29.78 in Calm     80% 0.00 in 0 W/m2
22:54 65.6 °F 59.3 °F 29.78 in Calm     80% 0.00 in 0 W/m2
23:06 65.7 °F 60.1 °F 29.77 in Calm     82% 0.00 in 0 W/m2
23:12 65.6 °F 60.0 °F 29.78 in Calm     82% 0.00 in 0 W/m2
23:18 65.6 °F 59.6 °F 29.77 in Calm     81% 0.00 in 0 W/m2
23:24 65.6 °F 59.6 °F 29.77 in Calm     81% 0.00 in 0 W/m2
23:30 65.7 °F 60.1 °F 29.77 in Calm     82% 0.00 in 0 W/m2
23:36 65.7 °F 60.1 °F 29.77 in Calm     82% 0.00 in 0 W/m2
23:42 65.6 °F 60.0 °F 29.77 in Calm     82% 0.00 in 0 W/m2
23:48 65.4 °F 60.1 °F 29.77 in Calm     83% 0.00 in 0 W/m2
23:54 65.2 °F 60.2 °F 29.77 in Calm   2.0 mph 84% 0.00 in 0 W/m2
Country Meadow, Clay, NY, USA
Compliments of Weather Underground - 2 mb